Time;durP1;ratioP1;P1;durP2;ratioP2;P2;SDS_P1;SDS_P2;PMS_P1;PMS_P2;Temp;Humidity;BMP_temperature;BMP_pressure;BME280_temperature;BME280_humidity;BME280_pressure;Samples;Min_cycle;Max_cycle;Signal;HPM_P1;HPM_P2
2021/03/13 00:01:48;;;;;;;5.53;1.77;;;8.20;99.90;;;;;;5064021;28;20036;-54
2021/03/13 00:04:14;;;;;;;8.95;2.05;;;8.20;99.90;;;;;;5067202;28;20047;-52
2021/03/13 00:06:40;;;;;;;7.03;1.45;;;8.00;99.90;;;;;;5065385;28;20482;-58
2021/03/13 00:09:05;;;;;;;6.32;1.73;;;7.90;99.90;;;;;;5065204;28;20020;-52
2021/03/13 00:11:31;;;;;;;7.97;1.60;;;7.80;99.90;;;;;;5065113;28;20110;-52
2021/03/13 00:13:56;;;;;;;5.32;1.38;;;7.50;99.90;;;;;;5062290;28;20035;-54
2021/03/13 00:16:22;;;;;;;10.10;1.27;;;7.40;99.90;;;;;;5068905;28;20051;-51
2021/03/13 00:18:47;;;;;;;10.05;1.40;;;7.40;99.90;;;;;;5067853;28;20028;-53
2021/03/13 00:21:13;;;;;;;7.28;1.63;;;7.30;99.90;;;;;;5063710;28;20036;-54
2021/03/13 00:23:39;;;;;;;6.20;1.73;;;7.20;99.90;;;;;;5064454;28;20111;-53
2021/03/13 00:26:04;;;;;;;5.03;1.30;;;7.20;99.90;;;;;;5068360;28;20060;-52
2021/03/13 00:28:30;;;;;;;18.80;2.60;;;7.10;99.90;;;;;;5069010;28;20043;-54
2021/03/13 00:30:56;;;;;;;9.38;1.83;;;7.00;99.90;;;;;;5067882;28;20037;-53
2021/03/13 00:33:28;;;;;;;3.70;1.27;;;7.00;99.90;;;;;;5067365;28;20103;-53
2021/03/13 00:35:54;;;;;;;3.80;2.28;;;7.00;99.90;;;;;;5064705;28;20032;-56
2021/03/13 00:38:21;;;;;;;10.63;1.40;;;6.90;99.90;;;;;;5069876;28;20029;-55
2021/03/13 00:40:49;;;;;;;8.80;2.35;;;6.80;99.90;;;;;;5072064;28;20021;-52
2021/03/13 00:43:15;;;;;;;11.32;2.38;;;6.70;99.90;;;;;;5072737;28;20029;-51
2021/03/13 00:45:42;;;;;;;8.70;3.00;;;6.70;99.90;;;;;;5072423;28;20498;-52
2021/03/13 00:48:09;;;;;;;8.45;2.90;;;6.70;99.90;;;;;;5072649;28;20055;-55
2021/03/13 00:50:36;;;;;;;10.30;2.95;;;6.70;99.90;;;;;;5066273;28;20083;-52
2021/03/13 00:53:02;;;;;;;11.65;2.83;;;6.70;99.90;;;;;;5071506;28;20025;-52
2021/03/13 00:55:28;;;;;;;9.50;3.10;;;6.70;99.90;;;;;;5069905;28;20052;-55
2021/03/13 00:57:54;;;;;;;13.60;2.70;;;6.70;99.90;;;;;;5072078;28;20071;-52
2021/03/13 01:00:23;;;;;;;13.95;2.67;;;6.70;99.90;;;;;;5072020;28;20032;-57
2021/03/13 01:02:48;;;;;;;11.77;2.63;;;6.70;99.90;;;;;;5069928;28;20121;-56
2021/03/13 01:05:14;;;;;;;14.45;3.35;;;6.80;99.90;;;;;;5071434;28;20119;-55
2021/03/13 01:07:40;;;;;;;9.90;2.42;;;6.80;99.90;;;;;;5071964;28;20043;-55
2021/03/13 01:10:30;;;;;;;10.80;2.22;;;6.90;99.90;;;;;;5071910;28;20028;-52
2021/03/13 01:12:56;;;;;;;9.57;2.75;;;7.00;99.90;;;;;;5070527;28;20513;-51
2021/03/13 01:15:23;;;;;;;13.88;3.15;;;7.10;99.90;;;;;;5071282;28;20032;-55
2021/03/13 01:17:48;;;;;;;12.25;3.22;;;7.10;99.90;;;;;;5071488;28;20070;-54
2021/03/13 01:20:15;;;;;;;11.25;4.00;;;7.20;99.90;;;;;;5071094;28;20028;-51
2021/03/13 01:22:42;;;;;;;13.93;3.08;;;7.30;99.90;;;;;;5071923;28;20033;-50
2021/03/13 01:25:09;;;;;;;9.02;3.15;;;7.30;99.90;;;;;;5071717;28;20020;-54
2021/03/13 01:27:35;;;;;;;11.38;3.28;;;7.30;99.90;;;;;;5054603;28;20541;-51
2021/03/13 01:30:01;;;;;;;13.63;3.22;;;7.30;99.90;;;;;;5071768;28;20067;-54
2021/03/13 01:32:26;;;;;;;8.45;3.10;;;7.30;99.90;;;;;;5068670;28;20459;-53
2021/03/13 01:34:52;;;;;;;6.13;2.90;;;7.30;99.90;;;;;;5065926;28;20067;-55
2021/03/13 01:37:21;;;;;;;8.30;3.03;;;7.40;99.90;;;;;;5066162;28;20486;-52
2021/03/13 01:39:46;;;;;;;12.27;3.22;;;7.40;99.90;;;;;;5066899;28;20063;-56
2021/03/13 01:42:12;;;;;;;7.20;2.35;;;7.40;99.90;;;;;;5071971;28;20068;-53
2021/03/13 01:44:38;;;;;;;11.40;3.10;;;7.40;99.90;;;;;;5071675;28;20107;-52
2021/03/13 01:47:04;;;;;;;8.45;2.75;;;7.40;99.90;;;;;;5071036;28;20024;-51
2021/03/13 01:49:32;;;;;;;7.40;2.15;;;7.50;99.90;;;;;;5071560;28;20539;-51
2021/03/13 01:51:58;;;;;;;6.18;3.00;;;7.40;99.90;;;;;;5068873;28;20024;-52
2021/03/13 01:54:25;;;;;;;8.60;3.25;;;7.50;99.90;;;;;;5071682;28;20020;-52
2021/03/13 01:56:51;;;;;;;7.97;2.58;;;7.50;99.90;;;;;;5070887;28;20048;-52
2021/03/13 01:59:18;;;;;;;14.52;3.47;;;7.50;99.90;;;;;;5070619;28;20024;-54
2021/03/13 02:01:44;;;;;;;8.55;3.67;;;7.50;99.90;;;;;;5070987;28;20112;-54
2021/03/13 02:04:12;;;;;;;9.52;3.15;;;7.50;99.90;;;;;;5071927;28;20414;-54
2021/03/13 02:06:38;;;;;;;5.45;2.60;;;7.50;99.90;;;;;;5069228;28;20032;-54
2021/03/13 02:09:07;;;;;;;3.72;2.28;;;7.50;99.90;;;;;;5066219;28;20032;-51
2021/03/13 02:12:04;;;;;;;4.45;2.28;;;7.50;99.90;;;;;;5066985;28;20081;-53
2021/03/13 02:14:49;;;;;;;3.55;2.25;;;7.40;99.90;;;;;;5070722;28;20111;-53
2021/03/13 02:17:26;;;;;;;5.00;2.17;;;7.40;99.90;;;;;;5071576;28;20059;-53
2021/03/13 02:20:10;;;;;;;6.30;1.95;;;7.40;99.90;;;;;;5069714;28;20103;-53
2021/03/13 02:22:38;;;;;;;2.65;1.45;;;7.40;99.90;;;;;;5068094;28;20393;-54
2021/03/13 02:25:32;;;;;;;3.45;1.50;;;7.40;99.90;;;;;;5070708;28;20021;-52
2021/03/13 02:28:13;;;;;;;4.55;1.45;;;7.40;99.90;;;;;;5069849;28;20029;-55
2021/03/13 02:30:40;;;;;;;1.33;0.95;;;7.40;99.90;;;;;;5070236;28;20120;-56
2021/03/13 02:33:36;;;;;;;2.60;1.13;;;7.40;99.90;;;;;;5076828;28;20020;-54
2021/03/13 02:36:10;;;;;;;2.47;1.58;;;7.40;99.90;;;;;;5066432;28;20028;-54
2021/03/13 02:39:17;;;;;;;4.57;1.40;;;7.30;99.90;;;;;;5067017;28;20028;-55
2021/03/13 02:41:49;;;;;;;1.80;1.00;;;7.40;99.90;;;;;;5060471;28;20037;-55
2021/03/13 02:44:15;;;;;;;1.63;1.13;;;7.30;99.90;;;;;;5069929;28;20039;-54
2021/03/13 02:46:44;;;;;;;2.80;0.70;;;7.30;99.90;;;;;;5066496;28;20069;-55
2021/03/13 02:49:12;;;;;;;2.85;0.80;;;7.40;99.90;;;;;;5070758;28;20029;-55
2021/03/13 02:51:39;;;;;;;1.25;0.60;;;7.40;99.90;;;;;;5069351;28;20382;-52
2021/03/13 02:54:07;;;;;;;2.80;0.90;;;7.40;99.90;;;;;;5069430;28;20398;-52
2021/03/13 02:56:34;;;;;;;2.85;0.70;;;7.40;99.90;;;;;;5070248;28;20022;-53
2021/03/13 02:59:01;;;;;;;0.93;0.60;;;7.50;99.90;;;;;;5069012;28;20033;-52
2021/03/13 03:01:29;;;;;;;2.50;0.70;;;7.50;99.90;;;;;;5068911;28;20025;-54
2021/03/13 03:03:56;;;;;;;1.42;0.73;;;7.40;99.90;;;;;;5069102;28;20047;-52
2021/03/13 03:06:22;;;;;;;3.85;0.70;;;7.50;99.90;;;;;;5069235;28;20505;-51
2021/03/13 03:08:49;;;;;;;2.42;0.75;;;7.50;99.90;;;;;;5069455;28;20028;-55
2021/03/13 03:11:19;;;;;;;0.82;0.52;;;7.50;99.90;;;;;;5069128;28;20035;-53
2021/03/13 03:13:47;;;;;;;1.45;0.70;;;7.50;99.90;;;;;;5069009;28;20044;-54
2021/03/13 03:16:13;;;;;;;2.72;0.77;;;7.60;99.90;;;;;;5066727;28;20035;-54
2021/03/13 03:18:40;;;;;;;1.52;0.52;;;7.60;99.90;;;;;;5069739;28;20020;-54
2021/03/13 03:21:07;;;;;;;0.43;0.40;;;7.50;99.90;;;;;;5068372;28;20033;-52
2021/03/13 03:23:36;;;;;;;2.33;0.65;;;7.50;99.90;;;;;;5069231;28;20032;-58
2021/03/13 03:26:01;;;;;;;3.10;0.40;;;7.50;99.90;;;;;;5060254;28;20519;-51
2021/03/13 03:28:27;;;;;;;0.52;0.30;;;7.60;99.90;;;;;;5066925;28;20127;-52
2021/03/13 03:30:54;;;;;;;3.13;0.60;;;7.60;99.90;;;;;;5068386;28;20042;-55
2021/03/13 03:33:20;;;;;;;1.20;0.38;;;7.60;99.90;;;;;;5069416;28;20056;-52
2021/03/13 03:35:46;;;;;;;0.63;0.47;;;7.60;99.90;;;;;;5069478;28;20024;-55
2021/03/13 03:38:12;;;;;;;2.45;0.60;;;7.60;99.90;;;;;;5068939;28;20097;-52
2021/03/13 03:40:40;;;;;;;1.63;0.40;;;7.60;99.90;;;;;;5069806;28;20559;-51
2021/03/13 03:43:15;;;;;;;1.02;0.40;;;7.60;99.90;;;;;;5069744;28;20509;-53
2021/03/13 03:45:45;;;;;;;5.65;0.70;;;7.70;99.90;;;;;;5067441;28;20036;-54
2021/03/13 03:48:13;;;;;;;1.38;0.52;;;7.70;99.90;;;;;;5065958;28;20028;-55
2021/03/13 03:50:40;;;;;;;0.93;0.40;;;7.70;99.90;;;;;;5069228;28;20035;-55
2021/03/13 03:53:22;;;;;;;0.50;0.50;;;7.70;99.90;;;;;;5063330;28;20029;-52
2021/03/13 03:55:51;;;;;;;0.77;0.40;;;7.70;99.90;;;;;;5060493;28;20017;-54
2021/03/13 03:58:23;;;;;;;1.75;0.52;;;7.80;99.90;;;;;;5069287;28;20025;-52
2021/03/13 04:00:50;;;;;;;1.65;0.38;;;7.80;99.90;;;;;;5069711;28;20025;-52
2021/03/13 04:03:17;;;;;;;0.57;0.57;;;7.70;99.90;;;;;;5069096;28;20700;-52
2021/03/13 04:05:44;;;;;;;0.73;0.50;;;7.80;99.90;;;;;;5067020;28;20043;-52
2021/03/13 04:08:12;;;;;;;1.08;0.40;;;7.80;99.90;;;;;;5058623;28;20039;-55
2021/03/13 04:10:42;;;;;;;0.68;0.47;;;7.80;99.90;;;;;;5069360;28;20205;-54
2021/03/13 04:13:10;;;;;;;0.75;0.32;;;7.80;99.90;;;;;;5069853;28;20546;-56
2021/03/13 04:15:36;;;;;;;1.50;0.40;;;7.90;99.90;;;;;;5072923;28;20044;-54
2021/03/13 04:18:01;;;;;;;0.63;0.38;;;7.90;99.90;;;;;;5072821;28;20574;-53
2021/03/13 04:20:28;;;;;;;1.67;0.40;;;7.90;99.90;;;;;;5072921;28;20021;-55
2021/03/13 04:22:54;;;;;;;0.60;0.30;;;7.80;99.90;;;;;;5073089;28;20033;-54
2021/03/13 04:25:21;;;;;;;2.10;0.40;;;7.80;99.90;;;;;;5072615;28;20078;-52
2021/03/13 04:27:47;;;;;;;1.05;0.40;;;7.80;99.90;;;;;;5073364;28;20112;-53
2021/03/13 04:30:18;;;;;;;1.05;0.40;;;7.80;99.90;;;;;;5072368;28;20108;-52
2021/03/13 04:32:47;;;;;;;1.23;0.50;;;7.80;99.90;;;;;;5073069;28;20518;-55
2021/03/13 04:35:14;;;;;;;1.77;1.17;;;7.80;99.90;;;;;;5069275;28;20414;-55
2021/03/13 04:37:41;;;;;;;1.25;0.65;;;7.80;99.90;;;;;;5072447;28;20020;-54
2021/03/13 04:40:09;;;;;;;3.85;0.65;;;7.80;99.90;;;;;;5072334;28;20028;-53
2021/03/13 04:42:37;;;;;;;1.45;0.50;;;7.80;99.90;;;;;;5055052;28;20494;-53
2021/03/13 04:45:03;;;;;;;2.38;0.68;;;7.90;99.90;;;;;;5072010;28;20115;-51
2021/03/13 04:47:29;;;;;;;1.35;0.50;;;7.90;99.90;;;;;;5072524;28;20056;-55
2021/03/13 04:49:54;;;;;;;1.70;0.60;;;7.90;99.90;;;;;;5070572;28;20109;-55
2021/03/13 04:52:20;;;;;;;0.82;0.50;;;8.00;99.90;;;;;;5072440;28;20068;-55
2021/03/13 04:54:46;;;;;;;2.97;0.70;;;8.00;99.90;;;;;;5071641;28;20032;-53
2021/03/13 04:57:13;;;;;;;1.30;0.40;;;8.00;99.90;;;;;;5072665;28;20553;-53
2021/03/13 04:59:38;;;;;;;3.85;0.60;;;8.00;99.90;;;;;;5072633;28;20082;-54
2021/03/13 05:02:04;;;;;;;1.50;0.57;;;8.10;99.90;;;;;;5072394;28;20067;-52
2021/03/13 05:04:30;;;;;;;2.28;0.50;;;8.10;99.90;;;;;;5070610;28;20039;-52
2021/03/13 05:06:55;;;;;;;1.40;0.60;;;8.20;99.90;;;;;;5071963;28;20029;-53
2021/03/13 05:09:21;;;;;;;1.30;0.60;;;8.20;99.90;;;;;;5080902;28;20025;-52
2021/03/13 05:11:46;;;;;;;4.13;0.40;;;8.20;99.90;;;;;;5077283;28;20698;-54
2021/03/13 05:14:12;;;;;;;0.82;0.70;;;8.20;99.90;;;;;;5076183;28;20063;-51
2021/03/13 05:16:37;;;;;;;1.55;0.50;;;8.20;99.90;;;;;;5080807;28;20067;-54
2021/03/13 05:19:03;;;;;;;3.13;0.70;;;8.20;99.90;;;;;;5079066;28;20032;-53
2021/03/13 05:21:29;;;;;;;1.98;0.60;;;8.30;99.90;;;;;;5078987;28;20024;-52
2021/03/13 05:23:54;;;;;;;2.92;0.63;;;8.20;99.90;;;;;;5078472;28;20033;-53
2021/03/13 05:26:20;;;;;;;3.53;0.47;;;8.30;99.90;;;;;;5080458;28;20041;-55
2021/03/13 05:28:45;;;;;;;1.48;0.40;;;8.30;99.90;;;;;;5078647;28;20028;-54
2021/03/13 05:31:11;;;;;;;1.20;0.50;;;8.40;99.90;;;;;;5075857;28;20642;-56
2021/03/13 05:33:36;;;;;;;1.90;0.30;;;8.50;99.90;;;;;;5075100;28;20027;-56
2021/03/13 05:36:02;;;;;;;0.82;0.63;;;8.50;99.90;;;;;;5081550;28;20107;-52
2021/03/13 05:38:28;;;;;;;2.20;0.50;;;8.50;99.90;;;;;;5073109;28;20032;-52
2021/03/13 05:40:56;;;;;;;1.70;0.70;;;8.60;99.90;;;;;;5078576;28;20382;-55
2021/03/13 05:43:22;;;;;;;2.05;0.40;;;8.60;99.90;;;;;;5077867;28;20035;-55
2021/03/13 05:45:47;;;;;;;1.00;0.40;;;8.70;99.90;;;;;;5078607;28;20024;-53
2021/03/13 05:48:14;;;;;;;0.65;0.40;;;8.80;99.90;;;;;;5079496;28;20051;-54
2021/03/13 05:50:40;;;;;;;0.63;0.50;;;8.70;99.90;;;;;;5078550;28;20119;-53
2021/03/13 05:53:10;;;;;;;5.97;0.60;;;8.80;99.90;;;;;;5078378;28;20021;-51
2021/03/13 05:55:36;;;;;;;1.58;0.60;;;8.80;99.90;;;;;;5077396;28;20028;-55
2021/03/13 05:58:02;;;;;;;1.25;0.40;;;8.80;99.90;;;;;;5078017;28;20039;-54
2021/03/13 06:00:27;;;;;;;2.00;0.73;;;8.90;99.90;;;;;;5079030;28;20129;-55
2021/03/13 06:02:55;;;;;;;2.28;0.55;;;8.80;99.90;;;;;;5080112;28;20077;-56
2021/03/13 06:05:21;;;;;;;1.52;0.57;;;8.80;99.90;;;;;;5080446;28;20110;-53
2021/03/13 06:07:48;;;;;;;2.53;0.40;;;8.90;99.90;;;;;;5070049;28;20154;-53
2021/03/13 06:10:14;;;;;;;1.42;0.52;;;8.90;99.90;;;;;;5070300;28;20490;-52
2021/03/13 06:12:40;;;;;;;3.90;0.82;;;8.90;99.90;;;;;;5071245;28;20051;-52
2021/03/13 06:15:07;;;;;;;1.85;0.52;;;9.00;99.90;;;;;;5070883;28;20016;-51
2021/03/13 06:17:53;;;;;;;3.33;0.50;;;9.00;99.90;;;;;;5070607;28;20166;-56
2021/03/13 06:20:29;;;;;;;3.50;0.80;;;9.00;99.90;;;;;;5066504;28;20032;-52
2021/03/13 06:25:28;;;;;;;2.25;0.60;;;9.00;99.90;;;;;;5069367;28;20048;-55
2021/03/13 06:28:00;;;;;;;3.72;0.50;;;9.00;99.90;;;;;;5070178;28;20017;-56
2021/03/13 06:30:39;;;;;;;2.30;0.60;;;9.10;99.90;;;;;;5071186;28;20020;-54
2021/03/13 06:33:22;;;;;;;3.20;0.65;;;9.10;99.90;;;;;;5070271;28;20021;-55
2021/03/13 06:35:49;;;;;;;2.03;0.40;;;9.00;99.90;;;;;;5060030;28;20044;-55
2021/03/13 06:38:21;;;;;;;1.85;0.40;;;9.10;99.90;;;;;;5069896;28;20037;-54
2021/03/13 06:40:47;;;;;;;0.80;0.45;;;9.10;99.90;;;;;;5064497;28;20070;-55
2021/03/13 06:43:20;;;;;;;1.23;0.60;;;9.10;99.90;;;;;;5063577;28;20441;-54
2021/03/13 06:46:04;;;;;;;1.85;0.50;;;9.10;99.90;;;;;;5067297;28;20074;-56
2021/03/13 06:48:32;;;;;;;2.08;0.60;;;9.10;99.90;;;;;;5067175;28;20066;-54
2021/03/13 06:51:16;;;;;;;2.38;0.40;;;9.10;99.90;;;;;;5069591;28;20036;-57
2021/03/13 06:53:42;;;;;;;1.85;0.50;;;9.10;99.90;;;;;;5067209;28;20509;-55
2021/03/13 06:56:12;;;;;;;3.92;0.57;;;9.10;99.90;;;;;;5064323;28;20033;-56
2021/03/13 06:58:38;;;;;;;6.82;0.70;;;9.10;99.90;;;;;;5061809;28;20437;-57
2021/03/13 07:01:05;;;;;;;1.63;0.45;;;9.10;99.90;;;;;;5068390;28;20020;-55
2021/03/13 07:03:32;;;;;;;5.40;0.32;;;9.10;99.90;;;;;;5064719;28;20028;-56
2021/03/13 07:05:58;;;;;;;1.23;0.45;;;9.10;99.90;;;;;;5068536;28;20016;-55
2021/03/13 07:08:28;;;;;;;1.08;0.38;;;9.10;99.90;;;;;;5067801;28;20397;-57
2021/03/13 07:11:15;;;;;;;3.13;0.70;;;9.10;99.90;;;;;;5063873;28;20025;-56
2021/03/13 07:13:45;;;;;;;2.08;0.30;;;9.20;99.90;;;;;;5067370;28;20438;-57
2021/03/13 07:16:33;;;;;;;0.93;0.40;;;9.20;99.90;;;;;;5063389;28;20497;-56
2021/03/13 07:19:05;;;;;;;4.75;0.50;;;9.20;99.90;;;;;;5061486;28;20024;-54
2021/03/13 07:21:33;;;;;;;1.10;0.50;;;9.20;99.90;;;;;;5065868;28;20517;-57
2021/03/13 07:24:01;;;;;;;2.60;0.95;;;9.20;99.90;;;;;;5068282;28;20059;-54
2021/03/13 07:26:42;;;;;;;2.53;0.45;;;9.30;99.90;;;;;;5065663;28;20028;-56
2021/03/13 07:29:10;;;;;;;2.35;0.60;;;9.30;99.90;;;;;;5065084;28;20036;-56
2021/03/13 07:31:41;;;;;;;1.98;0.60;;;9.30;99.90;;;;;;5066780;28;20374;-57
2021/03/13 07:34:12;;;;;;;5.28;2.55;;;9.30;99.90;;;;;;5067675;28;20090;-56
2021/03/13 07:36:41;;;;;;;4.15;0.77;;;9.30;99.90;;;;;;5065136;28;20390;-58
2021/03/13 07:39:41;;;;;;;2.10;0.40;;;9.30;99.90;;;;;;5068671;28;20356;-55
2021/03/13 07:42:20;;;;;;;1.23;0.30;;;9.30;99.90;;;;;;5065202;28;20052;-56
2021/03/13 07:44:47;;;;;;;1.75;0.43;;;9.30;99.90;;;;;;5065358;28;20021;-58
2021/03/13 07:47:15;;;;;;;1.98;0.70;;;9.30;99.90;;;;;;5069208;28;20043;-57
2021/03/13 07:49:41;;;;;;;3.75;0.40;;;9.30;99.90;;;;;;5067221;28;20032;-55
2021/03/13 07:52:08;;;;;;;0.73;0.50;;;9.30;99.90;;;;;;5069174;28;20498;-56
2021/03/13 07:54:50;;;;;;;2.75;0.60;;;9.10;99.90;;;;;;5068270;28;20478;-55
2021/03/13 07:57:18;;;;;;;1.50;0.70;;;9.00;99.90;;;;;;5064144;28;20104;-54
2021/03/13 07:59:50;;;;;;;1.60;0.52;;;8.20;99.90;;;;;;5064006;28;20490;-55
2021/03/13 08:02:30;;;;;;;7.95;1.88;;;7.50;99.90;;;;;;5063414;28;20082;-58
2021/03/13 08:04:58;;;;;;;9.75;0.88;;;6.90;99.90;;;;;;5068179;28;20544;-56
2021/03/13 08:07:29;;;;;;;6.22;0.75;;;6.70;99.90;;;;;;5059011;28;20058;-54
2021/03/13 08:09:55;;;;;;;1.67;0.70;;;6.60;99.90;;;;;;5066833;28;20544;-55
2021/03/13 08:12:41;;;;;;;3.20;0.75;;;6.60;99.90;;;;;;5067526;28;20048;-56
2021/03/13 08:15:31;;;;;;;3.35;0.60;;;6.60;99.90;;;;;;5057705;28;20107;-55
2021/03/13 08:17:57;;;;;;;5.10;0.63;;;6.70;99.90;;;;;;5063395;28;20036;-57
2021/03/13 08:20:30;;;;;;;3.90;1.58;;;6.70;99.90;;;;;;5062440;28;20029;-57
2021/03/13 08:23:22;;;;;;;2.92;1.00;;;6.80;99.90;;;;;;5067477;28;20498;-54
2021/03/13 08:25:56;;;;;;;15.18;9.75;;;6.80;99.90;;;;;;5058318;28;20037;-56
2021/03/13 08:28:46;;;;;;;18.60;13.07;;;7.00;99.90;;;;;;5067013;28;20024;-58
2021/03/13 08:31:32;;;;;;;17.17;11.65;;;7.10;99.90;;;;;;5066943;28;20032;-54
2021/03/13 08:34:04;;;;;;;17.73;10.85;;;7.10;99.90;;;;;;5065187;28;20066;-57
2021/03/13 08:36:50;;;;;;;17.00;11.10;;;7.10;99.90;;;;;;5064659;28;20027;-56
2021/03/13 08:39:24;;;;;;;12.52;7.38;;;7.30;99.90;;;;;;5063383;28;20506;-54
2021/03/13 08:41:56;;;;;;;6.60;3.33;;;7.30;99.90;;;;;;5067335;28;20040;-54
2021/03/13 08:44:33;;;;;;;6.22;1.33;;;7.30;99.90;;;;;;5060510;28;20048;-55
2021/03/13 08:47:10;;;;;;;3.70;0.88;;;7.30;99.90;;;;;;5064309;28;20083;-56
2021/03/13 08:49:37;;;;;;;7.45;1.55;;;7.40;99.90;;;;;;5064198;28;20024;-54
2021/03/13 08:52:08;;;;;;;5.50;1.15;;;7.40;99.90;;;;;;5059745;28;20020;-55
2021/03/13 08:54:37;;;;;;;8.75;1.30;;;7.50;99.90;;;;;;5064536;28;20100;-52
2021/03/13 08:57:03;;;;;;;7.13;2.25;;;7.50;99.90;;;;;;5063568;28;20145;-55
2021/03/13 08:59:29;;;;;;;5.45;1.63;;;7.60;99.90;;;;;;5066774;28;20474;-56
2021/03/13 09:02:02;;;;;;;3.55;1.40;;;7.70;99.90;;;;;;5067208;28;20155;-56
2021/03/13 09:04:30;;;;;;;1.67;1.23;;;7.80;99.90;;;;;;5062988;28;20056;-54
2021/03/13 09:06:56;;;;;;;5.38;1.25;;;7.80;99.90;;;;;;5066886;28;20063;-58
2021/03/13 09:09:25;;;;;;;6.03;1.17;;;8.00;99.90;;;;;;5065971;28;20381;-57
2021/03/13 09:12:11;;;;;;;10.05;1.75;;;8.10;99.90;;;;;;5070473;28;20072;-54
2021/03/13 09:14:40;;;;;;;9.95;1.42;;;8.10;99.90;;;;;;5065924;28;20079;-52
2021/03/13 09:17:14;;;;;;;9.48;2.53;;;8.10;99.90;;;;;;5072824;28;20016;-53
2021/03/13 09:19:40;;;;;;;9.23;3.00;;;8.10;99.90;;;;;;5067385;28;20035;-56
2021/03/13 09:22:17;;;;;;;4.68;1.70;;;8.10;99.90;;;;;;5065265;28;20048;-55
2021/03/13 09:24:50;;;;;;;9.45;2.33;;;8.10;99.90;;;;;;5059995;28;20025;-55
2021/03/13 09:27:15;;;;;;;6.68;1.88;;;8.10;99.90;;;;;;5070174;28;20421;-55
2021/03/13 09:29:41;;;;;;;12.43;1.98;;;8.20;99.90;;;;;;5066165;28;20075;-54
2021/03/13 09:32:10;;;;;;;11.45;2.28;;;8.20;99.90;;;;;;5065834;28;20032;-54
2021/03/13 09:34:41;;;;;;;8.38;2.38;;;8.10;99.90;;;;;;5068514;28;20031;-55
2021/03/13 09:37:14;;;;;;;11.02;3.30;;;8.20;99.90;;;;;;5068745;28;20112;-54
2021/03/13 09:39:42;;;;;;;14.70;5.15;;;8.20;99.90;;;;;;5066514;28;20044;-54
2021/03/13 09:42:12;;;;;;;18.58;5.07;;;8.20;99.90;;;;;;5065458;28;20028;-56
2021/03/13 09:44:41;;;;;;;16.23;2.90;;;8.10;99.90;;;;;;5068339;28;20487;-56
2021/03/13 09:47:34;;;;;;;11.15;2.03;;;8.20;99.90;;;;;;5065996;28;20020;-54
2021/03/13 09:50:05;;;;;;;8.95;1.58;;;8.30;99.90;;;;;;5063095;28;20033;-54
2021/03/13 09:52:37;;;;;;;6.15;2.15;;;8.30;99.90;;;;;;5068012;28;20040;-57
2021/03/13 09:55:09;;;;;;;5.47;2.28;;;8.30;99.90;;;;;;5066254;28;20098;-58
2021/03/13 09:57:36;;;;;;;7.32;1.45;;;8.30;99.90;;;;;;5066654;28;20077;-54
2021/03/13 10:00:09;;;;;;;7.38;1.70;;;8.40;99.90;;;;;;5068320;28;20094;-57
2021/03/13 10:02:35;;;;;;;9.93;1.88;;;8.40;99.90;;;;;;5067447;28;20020;-54
2021/03/13 10:05:01;;;;;;;11.85;2.40;;;8.40;99.90;;;;;;5067546;28;20033;-55
2021/03/13 10:07:28;;;;;;;13.50;2.45;;;8.40;99.90;;;;;;5059077;28;20074;-54
2021/03/13 10:10:01;;;;;;;14.00;3.00;;;8.30;99.90;;;;;;5065448;28;20332;-54
2021/03/13 10:12:48;;;;;;;12.70;3.30;;;8.30;99.90;;;;;;5070288;28;20025;-55
2021/03/13 10:15:25;;;;;;;12.23;2.97;;;8.30;99.90;;;;;;5063466;28;20029;-58
2021/03/13 10:17:59;;;;;;;15.68;2.72;;;8.30;99.90;;;;;;5070049;28;20517;-57
2021/03/13 10:20:53;;;;;;;10.90;2.90;;;8.30;99.90;;;;;;5069149;28;20033;-57
2021/03/13 10:23:30;;;;;;;16.48;2.60;;;8.40;99.90;;;;;;5065878;28;20124;-56
2021/03/13 10:25:57;;;;;;;12.15;2.28;;;8.40;99.90;;;;;;5063324;28;20537;-56
2021/03/13 10:28:49;;;;;;;16.58;2.60;;;8.60;99.90;;;;;;5063673;28;20032;-55
2021/03/13 10:31:36;;;;;;;13.68;2.78;;;8.70;99.90;;;;;;5056840;28;20037;-58
2021/03/13 10:34:02;;;;;;;14.70;2.10;;;8.90;99.90;;;;;;5068974;28;20033;-54
2021/03/13 10:36:46;;;;;;;11.43;2.33;;;9.20;99.90;;;;;;5064041;28;20047;-54
2021/03/13 10:39:12;;;;;;;10.27;1.98;;;9.50;99.90;;;;;;5061541;28;21738;-54
2021/03/13 10:41:48;;;;;;;8.30;1.58;;;9.80;99.90;;;;;;5069703;28;20062;-53
2021/03/13 10:44:16;;;;;;;12.63;1.60;;;9.70;99.90;;;;;;5068843;28;20378;-55
2021/03/13 10:46:42;;;;;;;12.93;2.40;;;9.60;99.90;;;;;;5062376;28;20090;-55
2021/03/13 10:49:07;;;;;;;15.70;2.72;;;9.60;99.90;;;;;;5068384;28;20040;-54
2021/03/13 10:51:45;;;;;;;13.18;2.33;;;9.50;99.90;;;;;;5066158;28;20028;-54
2021/03/13 10:54:23;;;;;;;9.27;1.58;;;9.50;99.90;;;;;;5062346;28;20024;-55
2021/03/13 10:56:50;;;;;;;15.30;2.00;;;9.90;99.90;;;;;;5066947;28;20447;-56
2021/03/13 10:59:16;;;;;;;4.90;1.40;;;10.10;99.90;;;;;;5064628;28;20052;-54
2021/03/13 11:01:46;;;;;;;9.45;2.30;;;10.20;99.90;;;;;;5066461;28;20478;-54
2021/03/13 11:04:12;;;;;;;10.75;2.00;;;10.10;99.90;;;;;;5069099;28;20067;-57
2021/03/13 11:06:38;;;;;;;9.25;1.70;;;9.90;99.90;;;;;;5049939;28;20028;-57
2021/03/13 11:09:07;;;;;;;12.52;2.53;;;9.90;99.90;;;;;;5061697;28;20025;-56
2021/03/13 11:11:34;;;;;;;13.82;2.40;;;9.80;99.90;;;;;;5064822;28;20036;-56
2021/03/13 11:13:59;;;;;;;11.70;2.03;;;9.80;99.90;;;;;;5067736;28;20564;-56
2021/03/13 11:16:25;;;;;;;10.35;1.65;;;9.80;99.90;;;;;;5066275;28;20067;-57
2021/03/13 11:18:53;;;;;;;15.07;2.00;;;9.60;99.90;;;;;;5067985;28;20624;-57
2021/03/13 11:21:19;;;;;;;11.55;2.15;;;9.70;99.90;;;;;;5065907;28;20128;-56
2021/03/13 11:23:45;;;;;;;10.65;2.00;;;9.80;99.90;;;;;;5067548;28;20562;-54
2021/03/13 11:26:11;;;;;;;13.40;2.47;;;10.10;99.90;;;;;;5063772;28;20070;-56
2021/03/13 11:28:37;;;;;;;12.38;2.45;;;10.10;99.90;;;;;;5064098;28;20032;-57
2021/03/13 11:31:04;;;;;;;8.07;1.85;;;10.00;99.90;;;;;;5067884;28;20490;-57
2021/03/13 11:33:30;;;;;;;12.00;1.85;;;9.90;99.90;;;;;;5063683;28;20116;-56
2021/03/13 11:35:55;;;;;;;15.63;2.00;;;9.90;99.90;;;;;;5066605;28;20108;-56
2021/03/13 11:38:21;;;;;;;17.75;2.72;;;9.90;99.90;;;;;;5067706;28;20464;-55
2021/03/13 11:40:46;;;;;;;16.42;2.22;;;9.90;99.90;;;;;;5065501;28;20032;-55
2021/03/13 11:43:12;;;;;;;17.13;2.85;;;10.00;99.90;;;;;;5063240;28;20048;-54
2021/03/13 11:45:38;;;;;;;11.50;2.72;;;10.10;99.90;;;;;;5067964;28;20115;-54
2021/03/13 11:48:03;;;;;;;14.02;2.08;;;10.30;99.90;;;;;;5067480;28;20454;-57
2021/03/13 11:50:29;;;;;;;19.65;3.85;;;10.60;99.90;;;;;;5068186;28;20517;-57
2021/03/13 11:52:56;;;;;;;19.55;2.92;;;10.90;99.90;;;;;;5066990;28;20363;-56
2021/03/13 11:55:24;;;;;;;17.25;2.17;;;10.60;99.90;;;;;;5068673;28;20107;-54
2021/03/13 11:57:49;;;;;;;19.42;2.25;;;10.50;99.90;;;;;;5063945;28;20096;-54
2021/03/13 12:00:16;;;;;;;13.95;2.00;;;10.30;99.90;;;;;;5068691;28;20562;-54
2021/03/13 12:02:41;;;;;;;18.40;2.90;;;10.00;99.90;;;;;;5064481;28;20086;-55
2021/03/13 12:05:08;;;;;;;13.23;2.40;;;9.80;99.90;;;;;;5064150;28;20037;-54
2021/03/13 12:07:35;;;;;;;17.00;2.92;;;9.70;99.90;;;;;;5061435;28;20051;-57
2021/03/13 12:10:00;;;;;;;18.98;2.33;;;9.50;99.90;;;;;;5057173;28;20027;-58
2021/03/13 12:12:26;;;;;;;16.92;2.17;;;9.50;99.90;;;;;;5060557;28;20029;-56
2021/03/13 12:14:51;;;;;;;9.52;1.63;;;9.50;99.90;;;;;;5059359;28;20032;-56
2021/03/13 12:17:17;;;;;;;11.52;2.42;;;9.40;99.90;;;;;;5060139;28;20028;-57
2021/03/13 12:19:43;;;;;;;16.13;2.03;;;9.40;99.90;;;;;;5059218;28;20457;-56
2021/03/13 12:22:09;;;;;;;27.13;3.55;;;9.60;99.90;;;;;;5063315;28;20021;-54
2021/03/13 12:24:35;;;;;;;17.75;2.15;;;9.60;99.90;;;;;;5095098;22;20566;-55
2021/03/13 12:27:01;;;;;;;19.83;4.07;;;9.70;99.90;;;;;;5108098;28;20046;-57
2021/03/13 12:29:27;;;;;;;14.50;2.13;;;9.80;99.90;;;;;;5106373;28;20293;-55
2021/03/13 12:31:52;;;;;;;18.50;3.38;;;10.00;99.90;;;;;;5104678;28;20077;-52
2021/03/13 12:34:18;;;;;;;15.60;2.40;;;10.20;99.90;;;;;;5094255;28;20068;-54
2021/03/13 12:36:44;;;;;;;22.35;3.03;;;10.10;99.90;;;;;;5086909;28;20024;-56
2021/03/13 12:39:09;;;;;;;15.10;2.70;;;10.20;99.90;;;;;;5091218;28;20024;-57
2021/03/13 12:41:35;;;;;;;14.00;2.13;;;10.30;99.90;;;;;;5084757;28;20028;-56
2021/03/13 12:44:01;;;;;;;22.85;2.42;;;10.30;99.90;;;;;;5084504;28;20032;-56
2021/03/13 12:46:26;;;;;;;12.70;2.13;;;10.30;99.90;;;;;;5086007;28;20493;-54
2021/03/13 12:48:52;;;;;;;16.08;2.47;;;10.40;99.90;;;;;;5094225;28;20044;-53
2021/03/13 12:51:18;;;;;;;15.20;2.42;;;10.40;99.90;;;;;;5090124;28;20063;-54
2021/03/13 12:53:45;;;;;;;16.08;2.70;;;10.40;99.90;;;;;;5093232;28;20031;-54
2021/03/13 12:56:12;;;;;;;16.10;2.35;;;10.40;99.90;;;;;;5090300;28;20026;-53
2021/03/13 12:58:38;;;;;;;18.55;2.28;;;10.50;99.90;;;;;;5082739;28;20082;-53
2021/03/13 13:01:04;;;;;;;9.85;2.03;;;10.60;99.90;;;;;;5080771;28;20020;-54
2021/03/13 13:03:30;;;;;;;12.05;1.98;;;11.00;99.90;;;;;;5085091;28;20028;-52
2021/03/13 13:05:55;;;;;;;9.80;2.33;;;11.30;99.90;;;;;;5086869;28;20031;-52
2021/03/13 13:08:21;;;;;;;10.25;2.28;;;11.60;99.90;;;;;;5091324;28;20389;-56